Parțial înnorat și nori Cirrus
Înnorat
Înnorat
Înnorat
Înnorat
Înnorat cu ploaie ușoară
Înnorat
(°C)
16°
16°
16°
16°
16°
16°
16°
16°
16°
16°
16°
16°
16°
16°
(°C)
16°
15°
15°
15°
15°
15°
15°
S
S
SSE
SSE
SSE
SSE
SSE
(km/h)
5-10
6-11
6-11
6-11
6-11
6-12
6-13
(mm)
0
0
0
0
0
0.1
0
(%)
0
0
0
0
0
25
0

Elevația soarelui

/ -35.5°
sun-icon
UV 9
05:42
19:48
Luna gibboasă în scădere (192°)
21:29
06:15

METAR pentru San Diego (KSAN)

Ora Condiții Temperatură/
Punctul de rouă
Vânt Vizibilitate Vremea Nori Presiune Schimbă Brut
MVFR 16.1°C / 11.7°C 140º 4kt >10km - Overcast 1900ft 1014 - KSAN 240751Z 14004KT 10SM OVC019 16/12 A2995 RMK AO2 SLP141 T01610117 401940156 $
MVFR 16.7°C / 11.7°C 200º 5kt >10km - Overcast 2200ft 1014 - KSAN 240651Z 20005KT 10SM OVC022 17/12 A2996 RMK AO2 SLP146 T01670117 $
MVFR 16.1°C / 11.7°C 5kt >10km - Overcast 2100ft 1014 - KSAN 240551Z VRB05KT 10SM OVC021 16/12 A2997 RMK AO2 SLP147 T01610117 10183 20161 50003 $
MVFR 16.7°C / 11.7°C 6kt >10km - Overcast 2300ft 1014 - KSAN 240451Z VRB06KT 10SM OVC023 17/12 A2997 RMK AO2 SLP149 T01670117 $
MVFR 16.7°C / 11.1°C 230º 6kt >10km - Overcast 2100ft 1014 - KSAN 240351Z 23006KT 10SM OVC021 17/11 A2996 RMK AO2 SLP146 T01670111 $
MVFR 16.7°C / 11.1°C 240º 6kt >10km - Broken Clouds 2000ft 1014 - KSAN 240251Z 24006KT 10SM BKN020 17/11 A2996 RMK AO2 SLP145 T01670111 53004 $
MVFR 17.2°C / 11.7°C 200º 5kt >10km - Broken Clouds 1900ft 1014 - KSAN 240151Z 20005KT 10SM BKN019 17/12 A2995 RMK AO2 SLP140 T01720117 $
MVFR 17.2°C / 11.1°C 210º variable 190º to 280º 8kt >10km - Broken Clouds 2100ft - KSAN 240102Z 21008KT 190V280 10SM BKN021 17/11 A2994 RMK AO2 T01720111 $
MVFR 17.2°C / 11.7°C 6kt Gust 19kt >10km - Broken Clouds 2200ft 1013 - KSAN 240051Z VRB06G19KT 10SM BKN022 17/12 A2994 RMK AO2 SLP139 T01720117 $
MVFR 17.8°C / 11.7°C 210º 6kt Gust 20kt >10km - Broken Clouds 2200ft 1014 - KSAN 232351Z 21006G20KT 10SM BKN022 18/12 A2995 RMK AO2 SLP140 T01780117 10194 20172 56009 $
MVFR 18.3°C / 11.7°C 210º 9kt >10km - Broken Clouds 2200ft 1014 - KSAN 232251Z 21009KT 10SM BKN022 18/12 A2995 RMK AO2 SLP142 BKN V SCT T01830117 $
MVFR 18.3°C / 11.7°C 210º 9kt Gust 17kt >10km - Broken Clouds 2400ft - KSAN 232217Z 21009G17KT 10SM BKN024 18/12 A2996 RMK AO2 T01830117 $
MVFR 18.3°C / 11.7°C 230º 8kt >10km - Scattered Clouds 2100ft
Broken Clouds 3000ft
1014 - KSAN 232151Z 23008KT 10SM SCT021 BKN030 18/12 A2996 RMK AO2 SLP144 T01830117 $
VFR 18.3°C / 12.2°C 220º 9kt Gust 19kt >10km - Scattered Clouds 2000ft
Broken Clouds 3300ft
1014 - KSAN 232051Z 22009G19KT 10SM SCT020 BKN033 18/12 A2997 RMK AO2 SLP149 T01830122 58003 $
VFR 18.3°C / 12.2°C 230º 11kt Gust 17kt >10km - Scattered Clouds 2000ft
Broken Clouds 3300ft
1015 - KSAN 231951Z 23011G17KT 10SM SCT020 BKN033 18/12 A2998 RMK AO2 SLP151 T01830122 $
VFR 17.8°C / 12.2°C 230º 9kt >10km - Scattered Clouds 2000ft
Overcast 3300ft
1015 - KSAN 231851Z 23009KT 10SM SCT020 OVC033 18/12 A2998 RMK AO2 SLP152 T01780122 $
VFR 17.2°C / 11.7°C 200º 7kt >10km - Scattered Clouds 2000ft
Broken Clouds 3300ft
- KSAN 231811Z 20007KT 10SM SCT020 BKN033 17/12 A2998 RMK AO2 T01720117 $
MVFR 17.8°C / 11.7°C 220º 6kt >10km - Broken Clouds 2000ft
Broken Clouds 3300ft
1015 - KSAN 231751Z 22006KT 10SM BKN020 BKN033 18/12 A2998 RMK AO2 SLP152 T01780117 10178 20156 50003 $
MVFR 16.7°C / 11.7°C 200º 5kt >10km - Broken Clouds 2200ft
Broken Clouds 3000ft
1015 - KSAN 231651Z 20005KT 10SM BKN022 BKN030 17/12 A2998 RMK AO2 SLP152 T01670117
MVFR 16.7°C / 11.1°C 200º 7kt >10km - Broken Clouds 2200ft
Broken Clouds 3000ft
- KSAN 231637Z 20007KT 10SM BKN022 BKN030 17/11 A2998 RMK AO2 T01670111
VFR 16.7°C / 11.1°C 190º 6kt >10km - Scattered Clouds 2000ft
Overcast 3100ft
1015 - KSAN 231551Z 19006KT 10SM SCT020 OVC031 17/11 A2998 RMK AO2 SLP152 T01670111
MVFR 16.1°C / 11.7°C 220º 6kt >10km - Few Clouds 2200ft
Overcast 3000ft
- KSAN 231500Z 22006KT 10SM FEW022 OVC030 16/12 A2998 RMK AO2 T01610117
MVFR 16.1°C / 11.1°C 230º 7kt >10km - Few Clouds 2000ft
Overcast 2900ft
1014 - KSAN 231451Z 23007KT 10SM FEW020 OVC029 16/11 A2997 RMK AO2 SLP149 T01610111 53007
MVFR 16.1°C / 11.1°C 6kt >10km - Broken Clouds 2900ft 1014 - KSAN 231351Z VRB06KT 10SM BKN029 16/11 A2996 RMK AO2 SLP144 T01610111 $

MVFR

16.1°C / 11.7°C

[Mai mult]
Vânt 140º 4kt
Vizibilitate >10km
Vremea -
Nori Overcast 1900ft
Presiune 1014
Schimbă -
Brut KSAN 240751Z 14004KT 10SM OVC019 16/12 A2995 RMK AO2 SLP141 T01610117 401940156 $

MVFR

16.7°C / 11.7°C

[Mai mult]
Vânt 200º 5kt
Vizibilitate >10km
Vremea -
Nori Overcast 2200ft
Presiune 1014
Schimbă -
Brut KSAN 240651Z 20005KT 10SM OVC022 17/12 A2996 RMK AO2 SLP146 T01670117 $

MVFR

16.1°C / 11.7°C

[Mai mult]
Vânt 5kt
Vizibilitate >10km
Vremea -
Nori Overcast 2100ft
Presiune 1014
Schimbă -
Brut KSAN 240551Z VRB05KT 10SM OVC021 16/12 A2997 RMK AO2 SLP147 T01610117 10183 20161 50003 $

MVFR

16.7°C / 11.7°C

[Mai mult]
Vânt 6kt
Vizibilitate >10km
Vremea -
Nori Overcast 2300ft
Presiune 1014
Schimbă -
Brut KSAN 240451Z VRB06KT 10SM OVC023 17/12 A2997 RMK AO2 SLP149 T01670117 $

MVFR

16.7°C / 11.1°C

[Mai mult]
Vânt 230º 6kt
Vizibilitate >10km
Vremea -
Nori Overcast 2100ft
Presiune 1014
Schimbă -
Brut KSAN 240351Z 23006KT 10SM OVC021 17/11 A2996 RMK AO2 SLP146 T01670111 $

MVFR

16.7°C / 11.1°C

[Mai mult]
Vânt 240º 6kt
Vizibilitate >10km
Vremea -
Nori Broken Clouds 2000ft
Presiune 1014
Schimbă -
Brut KSAN 240251Z 24006KT 10SM BKN020 17/11 A2996 RMK AO2 SLP145 T01670111 53004 $

MVFR

17.2°C / 11.7°C

[Mai mult]
Vânt 200º 5kt
Vizibilitate >10km
Vremea -
Nori Broken Clouds 1900ft
Presiune 1014
Schimbă -
Brut KSAN 240151Z 20005KT 10SM BKN019 17/12 A2995 RMK AO2 SLP140 T01720117 $

MVFR

17.2°C / 11.1°C

[Mai mult]
Vânt 210º variable 190º to 280º 8kt
Vizibilitate >10km
Vremea -
Nori Broken Clouds 2100ft
Presiune
Schimbă -
Brut KSAN 240102Z 21008KT 190V280 10SM BKN021 17/11 A2994 RMK AO2 T01720111 $

MVFR

17.2°C / 11.7°C

[Mai mult]
Vânt 6kt Gust 19kt
Vizibilitate >10km
Vremea -
Nori Broken Clouds 2200ft
Presiune 1013
Schimbă -
Brut KSAN 240051Z VRB06G19KT 10SM BKN022 17/12 A2994 RMK AO2 SLP139 T01720117 $

MVFR

17.8°C / 11.7°C

[Mai mult]
Vânt 210º 6kt Gust 20kt
Vizibilitate >10km
Vremea -
Nori Broken Clouds 2200ft
Presiune 1014
Schimbă -
Brut KSAN 232351Z 21006G20KT 10SM BKN022 18/12 A2995 RMK AO2 SLP140 T01780117 10194 20172 56009 $

MVFR

18.3°C / 11.7°C

[Mai mult]
Vânt 210º 9kt
Vizibilitate >10km
Vremea -
Nori Broken Clouds 2200ft
Presiune 1014
Schimbă -
Brut KSAN 232251Z 21009KT 10SM BKN022 18/12 A2995 RMK AO2 SLP142 BKN V SCT T01830117 $

MVFR

18.3°C / 11.7°C

[Mai mult]
Vânt 210º 9kt Gust 17kt
Vizibilitate >10km
Vremea -
Nori Broken Clouds 2400ft
Presiune
Schimbă -
Brut KSAN 232217Z 21009G17KT 10SM BKN024 18/12 A2996 RMK AO2 T01830117 $

MVFR

18.3°C / 11.7°C

[Mai mult]
Vânt 230º 8kt
Vizibilitate >10km
Vremea -
Nori Scattered Clouds 2100ft
Broken Clouds 3000ft
Presiune 1014
Schimbă -
Brut KSAN 232151Z 23008KT 10SM SCT021 BKN030 18/12 A2996 RMK AO2 SLP144 T01830117 $

VFR

18.3°C / 12.2°C

[Mai mult]
Vânt 220º 9kt Gust 19kt
Vizibilitate >10km
Vremea -
Nori Scattered Clouds 2000ft
Broken Clouds 3300ft
Presiune 1014
Schimbă -
Brut KSAN 232051Z 22009G19KT 10SM SCT020 BKN033 18/12 A2997 RMK AO2 SLP149 T01830122 58003 $

VFR

18.3°C / 12.2°C

[Mai mult]
Vânt 230º 11kt Gust 17kt
Vizibilitate >10km
Vremea -
Nori Scattered Clouds 2000ft
Broken Clouds 3300ft
Presiune 1015
Schimbă -
Brut KSAN 231951Z 23011G17KT 10SM SCT020 BKN033 18/12 A2998 RMK AO2 SLP151 T01830122 $

VFR

17.8°C / 12.2°C

[Mai mult]
Vânt 230º 9kt
Vizibilitate >10km
Vremea -
Nori Scattered Clouds 2000ft
Overcast 3300ft
Presiune 1015
Schimbă -
Brut KSAN 231851Z 23009KT 10SM SCT020 OVC033 18/12 A2998 RMK AO2 SLP152 T01780122 $

VFR

17.2°C / 11.7°C

[Mai mult]
Vânt 200º 7kt
Vizibilitate >10km
Vremea -
Nori Scattered Clouds 2000ft
Broken Clouds 3300ft
Presiune
Schimbă -
Brut KSAN 231811Z 20007KT 10SM SCT020 BKN033 17/12 A2998 RMK AO2 T01720117 $

MVFR

17.8°C / 11.7°C

[Mai mult]
Vânt 220º 6kt
Vizibilitate >10km
Vremea -
Nori Broken Clouds 2000ft
Broken Clouds 3300ft
Presiune 1015
Schimbă -
Brut KSAN 231751Z 22006KT 10SM BKN020 BKN033 18/12 A2998 RMK AO2 SLP152 T01780117 10178 20156 50003 $

MVFR

16.7°C / 11.7°C

[Mai mult]
Vânt 200º 5kt
Vizibilitate >10km
Vremea -
Nori Broken Clouds 2200ft
Broken Clouds 3000ft
Presiune 1015
Schimbă -
Brut KSAN 231651Z 20005KT 10SM BKN022 BKN030 17/12 A2998 RMK AO2 SLP152 T01670117

MVFR

16.7°C / 11.1°C

[Mai mult]
Vânt 200º 7kt
Vizibilitate >10km
Vremea -
Nori Broken Clouds 2200ft
Broken Clouds 3000ft
Presiune
Schimbă -
Brut KSAN 231637Z 20007KT 10SM BKN022 BKN030 17/11 A2998 RMK AO2 T01670111

VFR

16.7°C / 11.1°C

[Mai mult]
Vânt 190º 6kt
Vizibilitate >10km
Vremea -
Nori Scattered Clouds 2000ft
Overcast 3100ft
Presiune 1015
Schimbă -
Brut KSAN 231551Z 19006KT 10SM SCT020 OVC031 17/11 A2998 RMK AO2 SLP152 T01670111

MVFR

16.1°C / 11.7°C

[Mai mult]
Vânt 220º 6kt
Vizibilitate >10km
Vremea -
Nori Few Clouds 2200ft
Overcast 3000ft
Presiune
Schimbă -
Brut KSAN 231500Z 22006KT 10SM FEW022 OVC030 16/12 A2998 RMK AO2 T01610117

MVFR

16.1°C / 11.1°C

[Mai mult]
Vânt 230º 7kt
Vizibilitate >10km
Vremea -
Nori Few Clouds 2000ft
Overcast 2900ft
Presiune 1014
Schimbă -
Brut KSAN 231451Z 23007KT 10SM FEW020 OVC029 16/11 A2997 RMK AO2 SLP149 T01610111 53007

MVFR

16.1°C / 11.1°C

[Mai mult]
Vânt 6kt
Vizibilitate >10km
Vremea -
Nori Broken Clouds 2900ft
Presiune 1014
Schimbă -
Brut KSAN 231351Z VRB06KT 10SM BKN029 16/11 A2996 RMK AO2 SLP144 T01610111 $

TAF pentru San Diego (KSAN)

From till


From till Wind 210º 6kt. Visibility 9700m. Overcast 2100ft.
Temporarly from till Broken Clouds 1900ft.
From till Wind 240º 10kt. Visibility 9700m. Scattered Clouds 2200ft. Broken Clouds 3500ft.
From till Wind 280º 7kt. Visibility 9700m. Overcast 2500ft.

Brut: KSAN 240755Z 2408/2512 21006KT P6SM OVC021 TEMPO 2408/2412 BKN019 FM241900 24010KT P6SM SCT022 BKN035 FM250100 28007KT P6SM OVC025

rainNOW: Ploaie nowcasting pentru San Diego și împrejurimi (pe o rază de 25 km)

0.0 mm
0.0 mm
0.0 mm
0.0 mm
0.0 mm
0.0 mm
0.0 mm
0.0 mm
0.0 mm
0.0 mm
0.0 mm
0.0 mm

Radar și nowcast de precipitații pentru San Diego

Burniță
Ușoară
Moderat
Greu
Foarte greu
Grindină

Markerul de locație este plasat în San Diego. Această animație arată radarul de precipitații pentru intervalul de timp selectat, precum și o prognoză 1h. Crucile portocalii indică fulgerele. Date furnizate de nowcast.de (disponibile în SUA, Europa, Australia). Ploaia sau ninsoarea slabă ar putea fi invizibilă pentru radar. Intensitatea precipitațiilor este codificată prin culori, de la turcoaz la roșu.

Imagini satelitare actuale pentru: San Diego, S.U.A.

Markerul cu locaţia este poziţionat pe San Diego. [Mai mult]

Imaginea satelitară în timp real combină lumina vizibilă din timpul zilei cu radiația cu infraroșu din timpul nopții. Pe timp de noapte, imaginea nu este întunecată, deoarece radiația cu infraroșu poate detecta diferențele de temperatură. Din păcate, norii joși și ceața sunt greu de recunoscut față de temperatura de la sol, din această cauză putând fi invizibili pe timp de noapte. Imaginile satelitare Meteosat pentru Europa sunt actualizate în timp real din 5 în 5 minute. Imaginile GOES-16/GOES-17 (America de Nord și de Sud) și Himawari (Asia) sunt actualizate din 10 în 10 minute.

Precipitațiile sunt estimate pe baza radarelor și a sateliților. Estimările de precipitații de la sateliți sunt mai puțin precise pe timp de noapte decât pe timp de zi.

© 2024 meteoblue, NOAA Satellites GOES-16 and EUMETSAT. Datele despre fulgere furnizate de către nowcast.

Mergi sus
×
Bună ziua,
se pare că folosiți un blocant de reclame.

Publicitatea este esențială pentru a menține site-ul nostru gratuit cu detalii și acuratețe unice.

Vă rugăm să whitelist www.meteoblue.com în ad blocker-ul dvs. sau luați în considerare cumpărarea unuia dintre produsele noastre:

Aveți deja un abonament?
Atunci vă rugăm login.